sensor_id;sensor_type;location;lat;lon;timestamp;P1;durP1;ratioP1;P2;durP2;ratioP2
23898;SDS011;20544;50.018;20.010;2022-10-17T00:01:08;14.78;;;11.58;;
23898;SDS011;20544;50.018;20.010;2022-10-17T00:04:25;14.98;;;11.73;;
23898;SDS011;20544;50.018;20.010;2022-10-17T00:07:41;17.83;;;11.80;;
23898;SDS011;20544;50.018;20.010;2022-10-17T00:10:57;14.03;;;11.45;;
23898;SDS011;20544;50.018;20.010;2022-10-17T00:14:19;15.78;;;11.23;;
23898;SDS011;20544;50.018;20.010;2022-10-17T00:17:35;14.57;;;11.60;;
23898;SDS011;20544;50.018;20.010;2022-10-17T00:20:52;16.95;;;11.55;;
23898;SDS011;20544;50.018;20.010;2022-10-17T00:24:11;16.40;;;11.73;;
23898;SDS011;20544;50.018;20.010;2022-10-17T00:27:27;18.40;;;12.50;;
23898;SDS011;20544;50.018;20.010;2022-10-17T00:30:45;12.83;;;10.83;;
23898;SDS011;20544;50.018;20.010;2022-10-17T00:34:11;13.00;;;10.73;;
23898;SDS011;20544;50.018;20.010;2022-10-17T00:37:30;14.75;;;11.03;;
23898;SDS011;20544;50.018;20.010;2022-10-17T00:40:48;14.38;;;10.58;;
23898;SDS011;20544;50.018;20.010;2022-10-17T00:44:05;15.13;;;12.33;;
23898;SDS011;20544;50.018;20.010;2022-10-17T00:47:57;12.53;;;11.15;;
23898;SDS011;20544;50.018;20.010;2022-10-17T00:51:16;13.23;;;11.10;;
23898;SDS011;20544;50.018;20.010;2022-10-17T00:54:40;17.45;;;11.95;;
23898;SDS011;20544;50.018;20.010;2022-10-17T00:58:00;14.58;;;11.40;;
23898;SDS011;20544;50.018;20.010;2022-10-17T01:01:20;13.53;;;10.78;;
23898;SDS011;20544;50.018;20.010;2022-10-17T01:04:37;15.93;;;12.28;;
23898;SDS011;20544;50.018;20.010;2022-10-17T01:11:12;14.90;;;11.78;;
23898;SDS011;20544;50.018;20.010;2022-10-17T01:14:39;15.30;;;12.50;;
23898;SDS011;20544;50.018;20.010;2022-10-17T01:18:03;16.80;;;13.23;;
23898;SDS011;20544;50.018;20.010;2022-10-17T01:21:40;16.68;;;12.35;;
23898;SDS011;20544;50.018;20.010;2022-10-17T01:25:06;15.10;;;11.68;;
23898;SDS011;20544;50.018;20.010;2022-10-17T01:32:39;16.73;;;13.25;;
23898;SDS011;20544;50.018;20.010;2022-10-17T01:36:00;15.70;;;12.38;;
23898;SDS011;20544;50.018;20.010;2022-10-17T01:39:22;15.40;;;12.50;;
23898;SDS011;20544;50.018;20.010;2022-10-17T01:42:45;17.33;;;12.55;;
23898;SDS011;20544;50.018;20.010;2022-10-17T01:46:09;17.93;;;13.10;;
23898;SDS011;20544;50.018;20.010;2022-10-17T01:49:28;14.93;;;12.73;;
23898;SDS011;20544;50.018;20.010;2022-10-17T01:52:49;14.35;;;12.28;;
23898;SDS011;20544;50.018;20.010;2022-10-17T01:56:10;19.03;;;12.70;;
23898;SDS011;20544;50.018;20.010;2022-10-17T01:59:30;15.23;;;11.40;;
23898;SDS011;20544;50.018;20.010;2022-10-17T02:02:51;15.53;;;12.80;;
23898;SDS011;20544;50.018;20.010;2022-10-17T02:06:10;18.48;;;13.58;;
23898;SDS011;20544;50.018;20.010;2022-10-17T02:09:27;17.53;;;13.53;;
23898;SDS011;20544;50.018;20.010;2022-10-17T02:12:46;18.93;;;13.18;;
23898;SDS011;20544;50.018;20.010;2022-10-17T02:16:17;16.70;;;13.00;;
23898;SDS011;20544;50.018;20.010;2022-10-17T02:19:42;16.80;;;12.68;;
23898;SDS011;20544;50.018;20.010;2022-10-17T02:23:09;14.80;;;12.93;;
23898;SDS011;20544;50.018;20.010;2022-10-17T02:26:31;16.80;;;12.65;;
23898;SDS011;20544;50.018;20.010;2022-10-17T02:29:53;14.15;;;12.43;;
23898;SDS011;20544;50.018;20.010;2022-10-17T02:33:17;16.53;;;12.78;;
23898;SDS011;20544;50.018;20.010;2022-10-17T02:36:39;14.85;;;12.48;;
23898;SDS011;20544;50.018;20.010;2022-10-17T02:39:59;16.90;;;13.10;;
23898;SDS011;20544;50.018;20.010;2022-10-17T02:43:20;14.08;;;11.93;;
23898;SDS011;20544;50.018;20.010;2022-10-17T02:46:38;14.10;;;12.40;;
23898;SDS011;20544;50.018;20.010;2022-10-17T02:50:01;17.08;;;12.78;;
23898;SDS011;20544;50.018;20.010;2022-10-17T02:53:18;16.60;;;12.23;;
23898;SDS011;20544;50.018;20.010;2022-10-17T02:56:42;15.80;;;12.85;;
23898;SDS011;20544;50.018;20.010;2022-10-17T03:00:04;15.40;;;11.95;;
23898;SDS011;20544;50.018;20.010;2022-10-17T03:03:30;14.15;;;12.40;;
23898;SDS011;20544;50.018;20.010;2022-10-17T03:06:47;16.18;;;11.83;;
23898;SDS011;20544;50.018;20.010;2022-10-17T03:10:04;14.13;;;11.73;;
23898;SDS011;20544;50.018;20.010;2022-10-17T03:13:21;15.48;;;11.78;;
23898;SDS011;20544;50.018;20.010;2022-10-17T03:16:39;14.55;;;11.93;;
23898;SDS011;20544;50.018;20.010;2022-10-17T03:19:55;20.30;;;13.20;;
23898;SDS011;20544;50.018;20.010;2022-10-17T03:23:11;16.93;;;12.75;;
23898;SDS011;20544;50.018;20.010;2022-10-17T03:26:27;17.18;;;12.53;;
23898;SDS011;20544;50.018;20.010;2022-10-17T03:29:46;17.47;;;12.60;;
23898;SDS011;20544;50.018;20.010;2022-10-17T03:33:02;15.50;;;12.68;;
23898;SDS011;20544;50.018;20.010;2022-10-17T03:36:18;18.13;;;13.35;;
23898;SDS011;20544;50.018;20.010;2022-10-17T03:39:34;16.53;;;11.83;;
23898;SDS011;20544;50.018;20.010;2022-10-17T03:42:50;16.03;;;11.95;;
23898;SDS011;20544;50.018;20.010;2022-10-17T03:46:07;17.85;;;12.30;;
23898;SDS011;20544;50.018;20.010;2022-10-17T03:49:23;19.68;;;12.80;;
23898;SDS011;20544;50.018;20.010;2022-10-17T03:52:39;16.13;;;12.20;;
23898;SDS011;20544;50.018;20.010;2022-10-17T03:56:08;16.85;;;12.13;;
23898;SDS011;20544;50.018;20.010;2022-10-17T03:59:29;16.20;;;12.63;;
23898;SDS011;20544;50.018;20.010;2022-10-17T04:02:47;24.43;;;20.50;;
23898;SDS011;20544;50.018;20.010;2022-10-17T04:06:04;22.73;;;17.65;;
23898;SDS011;20544;50.018;20.010;2022-10-17T04:09:23;19.05;;;14.10;;
23898;SDS011;20544;50.018;20.010;2022-10-17T04:16:07;20.80;;;14.40;;
23898;SDS011;20544;50.018;20.010;2022-10-17T04:19:29;17.88;;;13.80;;
23898;SDS011;20544;50.018;20.010;2022-10-17T04:22:46;19.80;;;13.78;;
23898;SDS011;20544;50.018;20.010;2022-10-17T04:26:02;20.38;;;14.08;;
23898;SDS011;20544;50.018;20.010;2022-10-17T04:29:19;18.63;;;14.85;;
23898;SDS011;20544;50.018;20.010;2022-10-17T04:32:42;17.63;;;13.65;;
23898;SDS011;20544;50.018;20.010;2022-10-17T04:36:01;18.53;;;13.45;;
23898;SDS011;20544;50.018;20.010;2022-10-17T04:39:23;16.53;;;13.80;;
23898;SDS011;20544;50.018;20.010;2022-10-17T04:42:40;18.60;;;13.30;;
23898;SDS011;20544;50.018;20.010;2022-10-17T04:45:58;16.48;;;12.35;;
23898;SDS011;20544;50.018;20.010;2022-10-17T04:49:27;17.90;;;13.40;;
23898;SDS011;20544;50.018;20.010;2022-10-17T04:52:45;16.93;;;13.23;;
23898;SDS011;20544;50.018;20.010;2022-10-17T04:56:06;20.18;;;14.05;;
23898;SDS011;20544;50.018;20.010;2022-10-17T04:59:24;17.65;;;13.50;;
23898;SDS011;20544;50.018;20.010;2022-10-17T05:02:59;22.00;;;15.48;;
23898;SDS011;20544;50.018;20.010;2022-10-17T05:06:15;23.23;;;16.18;;
23898;SDS011;20544;50.018;20.010;2022-10-17T05:09:52;21.95;;;16.38;;
23898;SDS011;20544;50.018;20.010;2022-10-17T05:13:09;19.18;;;14.83;;
23898;SDS011;20544;50.018;20.010;2022-10-17T05:16:26;19.60;;;15.13;;
23898;SDS011;20544;50.018;20.010;2022-10-17T05:19:45;22.63;;;14.93;;
23898;SDS011;20544;50.018;20.010;2022-10-17T05:23:01;20.28;;;14.45;;
23898;SDS011;20544;50.018;20.010;2022-10-17T05:26:21;22.60;;;15.18;;
23898;SDS011;20544;50.018;20.010;2022-10-17T05:29:40;21.18;;;15.08;;
23898;SDS011;20544;50.018;20.010;2022-10-17T05:33:00;21.25;;;15.53;;
23898;SDS011;20544;50.018;20.010;2022-10-17T05:36:18;23.30;;;16.05;;
23898;SDS011;20544;50.018;20.010;2022-10-17T05:39:35;22.00;;;16.10;;
23898;SDS011;20544;50.018;20.010;2022-10-17T05:42:53;21.00;;;16.15;;
23898;SDS011;20544;50.018;20.010;2022-10-17T05:46:09;20.90;;;15.80;;
23898;SDS011;20544;50.018;20.010;2022-10-17T05:49:26;20.35;;;15.40;;
23898;SDS011;20544;50.018;20.010;2022-10-17T05:52:44;23.63;;;16.60;;
23898;SDS011;20544;50.018;20.010;2022-10-17T05:56:02;26.05;;;18.53;;
23898;SDS011;20544;50.018;20.010;2022-10-17T05:59:24;25.58;;;17.70;;
23898;SDS011;20544;50.018;20.010;2022-10-17T06:02:47;26.25;;;17.15;;
23898;SDS011;20544;50.018;20.010;2022-10-17T06:06:04;23.93;;;16.65;;
23898;SDS011;20544;50.018;20.010;2022-10-17T06:09:24;24.48;;;16.55;;
23898;SDS011;20544;50.018;20.010;2022-10-17T06:12:41;22.48;;;16.58;;
23898;SDS011;20544;50.018;20.010;2022-10-17T06:15:58;23.00;;;16.63;;
23898;SDS011;20544;50.018;20.010;2022-10-17T06:19:14;21.85;;;17.05;;
23898;SDS011;20544;50.018;20.010;2022-10-17T06:22:31;28.25;;;18.60;;
23898;SDS011;20544;50.018;20.010;2022-10-17T06:25:50;24.28;;;17.45;;
23898;SDS011;20544;50.018;20.010;2022-10-17T06:29:07;25.38;;;17.75;;
23898;SDS011;20544;50.018;20.010;2022-10-17T06:32:25;28.60;;;18.43;;
23898;SDS011;20544;50.018;20.010;2022-10-17T06:35:49;28.90;;;19.05;;
23898;SDS011;20544;50.018;20.010;2022-10-17T06:39:07;30.58;;;19.68;;
23898;SDS011;20544;50.018;20.010;2022-10-17T06:42:26;25.23;;;19.50;;
23898;SDS011;20544;50.018;20.010;2022-10-17T06:45:59;25.78;;;18.83;;
23898;SDS011;20544;50.018;20.010;2022-10-17T06:49:19;27.08;;;19.83;;
23898;SDS011;20544;50.018;20.010;2022-10-17T06:52:37;22.35;;;18.08;;
23898;SDS011;20544;50.018;20.010;2022-10-17T06:56:12;22.60;;;17.55;;
23898;SDS011;20544;50.018;20.010;2022-10-17T06:59:34;24.68;;;17.33;;
23898;SDS011;20544;50.018;20.010;2022-10-17T07:02:52;32.43;;;18.60;;
23898;SDS011;20544;50.018;20.010;2022-10-17T07:06:09;42.15;;;20.03;;
23898;SDS011;20544;50.018;20.010;2022-10-17T07:09:31;55.28;;;23.00;;
23898;SDS011;20544;50.018;20.010;2022-10-17T07:12:52;61.65;;;24.65;;
23898;SDS011;20544;50.018;20.010;2022-10-17T07:16:11;44.93;;;21.43;;
23898;SDS011;20544;50.018;20.010;2022-10-17T07:19:29;47.40;;;23.38;;
23898;SDS011;20544;50.018;20.010;2022-10-17T07:22:46;53.38;;;21.70;;
23898;SDS011;20544;50.018;20.010;2022-10-17T07:26:06;56.80;;;22.50;;
23898;SDS011;20544;50.018;20.010;2022-10-17T07:29:26;49.33;;;22.55;;
23898;SDS011;20544;50.018;20.010;2022-10-17T07:32:46;62.68;;;24.18;;
23898;SDS011;20544;50.018;20.010;2022-10-17T07:36:05;55.85;;;25.20;;
23898;SDS011;20544;50.018;20.010;2022-10-17T07:39:32;58.98;;;24.15;;
23898;SDS011;20544;50.018;20.010;2022-10-17T07:42:49;53.00;;;22.48;;
23898;SDS011;20544;50.018;20.010;2022-10-17T07:46:08;43.28;;;22.95;;
23898;SDS011;20544;50.018;20.010;2022-10-17T07:49:25;48.65;;;22.70;;
23898;SDS011;20544;50.018;20.010;2022-10-17T07:52:41;61.45;;;23.98;;
23898;SDS011;20544;50.018;20.010;2022-10-17T07:56:01;52.25;;;24.50;;
23898;SDS011;20544;50.018;20.010;2022-10-17T07:59:20;56.00;;;23.80;;
23898;SDS011;20544;50.018;20.010;2022-10-17T08:02:36;56.95;;;24.05;;
23898;SDS011;20544;50.018;20.010;2022-10-17T08:05:56;48.65;;;23.63;;
23898;SDS011;20544;50.018;20.010;2022-10-17T08:09:14;46.98;;;24.20;;
23898;SDS011;20544;50.018;20.010;2022-10-17T08:12:30;57.88;;;23.23;;
23898;SDS011;20544;50.018;20.010;2022-10-17T08:15:47;39.15;;;22.20;;
23898;SDS011;20544;50.018;20.010;2022-10-17T08:19:03;39.30;;;19.03;;
23898;SDS011;20544;50.018;20.010;2022-10-17T08:22:20;35.50;;;19.55;;
23898;SDS011;20544;50.018;20.010;2022-10-17T08:25:38;33.23;;;17.58;;
23898;SDS011;20544;50.018;20.010;2022-10-17T08:28:57;30.78;;;17.50;;
23898;SDS011;20544;50.018;20.010;2022-10-17T08:32:13;24.05;;;16.85;;
23898;SDS011;20544;50.018;20.010;2022-10-17T08:35:32;25.53;;;16.70;;
23898;SDS011;20544;50.018;20.010;2022-10-17T08:38:48;29.85;;;17.73;;
23898;SDS011;20544;50.018;20.010;2022-10-17T08:42:11;33.48;;;18.58;;
23898;SDS011;20544;50.018;20.010;2022-10-17T08:45:37;34.70;;;18.50;;
23898;SDS011;20544;50.018;20.010;2022-10-17T08:49:00;32.25;;;18.00;;
23898;SDS011;20544;50.018;20.010;2022-10-17T08:52:21;26.95;;;16.28;;
23898;SDS011;20544;50.018;20.010;2022-10-17T08:55:44;31.35;;;17.18;;
23898;SDS011;20544;50.018;20.010;2022-10-17T08:59:05;24.70;;;16.18;;
23898;SDS011;20544;50.018;20.010;2022-10-17T09:02:35;31.13;;;16.08;;
23898;SDS011;20544;50.018;20.010;2022-10-17T09:05:59;20.28;;;14.10;;
23898;SDS011;20544;50.018;20.010;2022-10-17T09:09:29;26.28;;;14.90;;
23898;SDS011;20544;50.018;20.010;2022-10-17T09:12:53;21.65;;;15.10;;
23898;SDS011;20544;50.018;20.010;2022-10-17T09:16:31;22.88;;;14.85;;
23898;SDS011;20544;50.018;20.010;2022-10-17T09:20:00;22.73;;;14.20;;
23898;SDS011;20544;50.018;20.010;2022-10-17T09:23:22;19.48;;;12.93;;
23898;SDS011;20544;50.018;20.010;2022-10-17T09:26:45;21.48;;;13.30;;
23898;SDS011;20544;50.018;20.010;2022-10-17T09:30:14;18.88;;;13.25;;
23898;SDS011;20544;50.018;20.010;2022-10-17T09:33:50;19.95;;;12.58;;
23898;SDS011;20544;50.018;20.010;2022-10-17T09:37:08;18.13;;;13.15;;
23898;SDS011;20544;50.018;20.010;2022-10-17T09:40:30;18.70;;;11.95;;
23898;SDS011;20544;50.018;20.010;2022-10-17T09:43:47;30.58;;;19.08;;
23898;SDS011;20544;50.018;20.010;2022-10-17T09:47:17;168.03;;;144.83;;
23898;SDS011;20544;50.018;20.010;2022-10-17T09:50:40;32.80;;;24.50;;
23898;SDS011;20544;50.018;20.010;2022-10-17T09:54:02;21.83;;;15.05;;
23898;SDS011;20544;50.018;20.010;2022-10-17T09:57:22;18.90;;;13.40;;
23898;SDS011;20544;50.018;20.010;2022-10-17T10:00:39;16.93;;;11.25;;
23898;SDS011;20544;50.018;20.010;2022-10-17T10:04:10;20.60;;;11.58;;
23898;SDS011;20544;50.018;20.010;2022-10-17T10:07:28;15.15;;;10.75;;
23898;SDS011;20544;50.018;20.010;2022-10-17T10:10:46;14.53;;;11.70;;
23898;SDS011;20544;50.018;20.010;2022-10-17T10:14:11;14.93;;;10.40;;
23898;SDS011;20544;50.018;20.010;2022-10-17T10:17:37;16.43;;;10.68;;
23898;SDS011;20544;50.018;20.010;2022-10-17T10:21:03;13.25;;;10.13;;
23898;SDS011;20544;50.018;20.010;2022-10-17T10:24:23;12.95;;;8.83;;
23898;SDS011;20544;50.018;20.010;2022-10-17T10:27:43;32.50;;;22.78;;
23898;SDS011;20544;50.018;20.010;2022-10-17T10:31:04;15.48;;;10.45;;
23898;SDS011;20544;50.018;20.010;2022-10-17T10:34:22;10.98;;;8.28;;
23898;SDS011;20544;50.018;20.010;2022-10-17T10:37:42;12.98;;;9.38;;
23898;SDS011;20544;50.018;20.010;2022-10-17T10:41:02;15.83;;;8.93;;
23898;SDS011;20544;50.018;20.010;2022-10-17T10:44:20;12.20;;;8.98;;
23898;SDS011;20544;50.018;20.010;2022-10-17T10:47:40;14.28;;;8.35;;
23898;SDS011;20544;50.018;20.010;2022-10-17T10:51:07;10.20;;;7.83;;
23898;SDS011;20544;50.018;20.010;2022-10-17T10:54:28;13.10;;;8.63;;
23898;SDS011;20544;50.018;20.010;2022-10-17T10:57:48;9.78;;;8.23;;
23898;SDS011;20544;50.018;20.010;2022-10-17T11:01:10;11.73;;;8.58;;
23898;SDS011;20544;50.018;20.010;2022-10-17T11:04:32;10.13;;;8.85;;
23898;SDS011;20544;50.018;20.010;2022-10-17T11:07:52;12.73;;;8.18;;
23898;SDS011;20544;50.018;20.010;2022-10-17T11:11:13;8.68;;;7.73;;
23898;SDS011;20544;50.018;20.010;2022-10-17T11:14:39;11.03;;;8.08;;
23898;SDS011;20544;50.018;20.010;2022-10-17T11:18:02;10.63;;;7.58;;
23898;SDS011;20544;50.018;20.010;2022-10-17T11:21:22;10.38;;;7.30;;
23898;SDS011;20544;50.018;20.010;2022-10-17T11:24:47;9.63;;;7.83;;
23898;SDS011;20544;50.018;20.010;2022-10-17T11:28:11;8.85;;;7.25;;
23898;SDS011;20544;50.018;20.010;2022-10-17T11:31:32;10.38;;;8.15;;
23898;SDS011;20544;50.018;20.010;2022-10-17T11:34:53;7.18;;;6.38;;
23898;SDS011;20544;50.018;20.010;2022-10-17T11:38:15;9.15;;;7.13;;
23898;SDS011;20544;50.018;20.010;2022-10-17T11:41:38;8.48;;;6.95;;
23898;SDS011;20544;50.018;20.010;2022-10-17T11:45:01;7.10;;;6.40;;
23898;SDS011;20544;50.018;20.010;2022-10-17T11:48:22;6.13;;;5.53;;
23898;SDS011;20544;50.018;20.010;2022-10-17T11:51:44;7.50;;;6.78;;
23898;SDS011;20544;50.018;20.010;2022-10-17T11:55:10;7.98;;;6.45;;
23898;SDS011;20544;50.018;20.010;2022-10-17T11:58:33;8.90;;;6.05;;
23898;SDS011;20544;50.018;20.010;2022-10-17T12:01:53;8.83;;;6.10;;
23898;SDS011;20544;50.018;20.010;2022-10-17T12:05:17;7.95;;;6.20;;
23898;SDS011;20544;50.018;20.010;2022-10-17T12:08:40;7.43;;;6.20;;
23898;SDS011;20544;50.018;20.010;2022-10-17T12:12:02;7.03;;;5.75;;
23898;SDS011;20544;50.018;20.010;2022-10-17T12:15:29;6.65;;;5.63;;
23898;SDS011;20544;50.018;20.010;2022-10-17T12:18:47;7.18;;;5.80;;
23898;SDS011;20544;50.018;20.010;2022-10-17T12:22:19;9.15;;;6.58;;
23898;SDS011;20544;50.018;20.010;2022-10-17T12:25:46;7.80;;;5.93;;
23898;SDS011;20544;50.018;20.010;2022-10-17T12:29:15;10.03;;;6.20;;
23898;SDS011;20544;50.018;20.010;2022-10-17T12:32:37;7.30;;;6.13;;
23898;SDS011;20544;50.018;20.010;2022-10-17T12:39:52;8.95;;;5.93;;
23898;SDS011;20544;50.018;20.010;2022-10-17T12:46:54;7.18;;;6.10;;
23898;SDS011;20544;50.018;20.010;2022-10-17T12:54:18;8.13;;;6.35;;
23898;SDS011;20544;50.018;20.010;2022-10-17T13:00:59;7.85;;;6.43;;
23898;SDS011;20544;50.018;20.010;2022-10-17T13:04:22;10.28;;;6.25;;
23898;SDS011;20544;50.018;20.010;2022-10-17T13:07:40;6.88;;;6.05;;
23898;SDS011;20544;50.018;20.010;2022-10-17T13:10:58;7.63;;;6.73;;
23898;SDS011;20544;50.018;20.010;2022-10-17T13:14:15;7.53;;;6.25;;
23898;SDS011;20544;50.018;20.010;2022-10-17T13:17:34;28.40;;;25.33;;
23898;SDS011;20544;50.018;20.010;2022-10-17T13:20:57;10.55;;;9.00;;
23898;SDS011;20544;50.018;20.010;2022-10-17T13:24:25;10.30;;;7.65;;
23898;SDS011;20544;50.018;20.010;2022-10-17T13:27:44;10.83;;;7.05;;
23898;SDS011;20544;50.018;20.010;2022-10-17T13:31:01;6.90;;;6.20;;
23898;SDS011;20544;50.018;20.010;2022-10-17T13:34:18;7.68;;;6.53;;
23898;SDS011;20544;50.018;20.010;2022-10-17T13:37:39;8.35;;;6.55;;
23898;SDS011;20544;50.018;20.010;2022-10-17T13:40:58;8.43;;;6.78;;
23898;SDS011;20544;50.018;20.010;2022-10-17T13:44:20;7.68;;;6.28;;
23898;SDS011;20544;50.018;20.010;2022-10-17T13:47:38;9.35;;;6.40;;
23898;SDS011;20544;50.018;20.010;2022-10-17T13:50:55;8.85;;;7.18;;
23898;SDS011;20544;50.018;20.010;2022-10-17T13:54:24;8.38;;;6.38;;
23898;SDS011;20544;50.018;20.010;2022-10-17T13:57:48;8.35;;;6.55;;
23898;SDS011;20544;50.018;20.010;2022-10-17T14:01:05;8.28;;;6.35;;
23898;SDS011;20544;50.018;20.010;2022-10-17T14:04:22;8.80;;;7.00;;
23898;SDS011;20544;50.018;20.010;2022-10-17T14:07:41;8.75;;;6.88;;
23898;SDS011;20544;50.018;20.010;2022-10-17T14:11:07;10.55;;;6.70;;
23898;SDS011;20544;50.018;20.010;2022-10-17T14:14:31;10.53;;;7.63;;
23898;SDS011;20544;50.018;20.010;2022-10-17T14:17:53;8.93;;;7.08;;
23898;SDS011;20544;50.018;20.010;2022-10-17T14:21:18;8.73;;;6.30;;
23898;SDS011;20544;50.018;20.010;2022-10-17T14:24:39;10.13;;;6.80;;
23898;SDS011;20544;50.018;20.010;2022-10-17T14:27:59;15.40;;;11.33;;
23898;SDS011;20544;50.018;20.010;2022-10-17T14:31:27;9.53;;;7.77;;
23898;SDS011;20544;50.018;20.010;2022-10-17T14:34:50;8.73;;;6.98;;
23898;SDS011;20544;50.018;20.010;2022-10-17T14:38:12;8.73;;;7.18;;
23898;SDS011;20544;50.018;20.010;2022-10-17T14:41:30;10.70;;;7.50;;
23898;SDS011;20544;50.018;20.010;2022-10-17T14:44:51;14.03;;;9.50;;
23898;SDS011;20544;50.018;20.010;2022-10-17T14:48:19;9.75;;;7.38;;
23898;SDS011;20544;50.018;20.010;2022-10-17T14:51:37;9.28;;;7.70;;
23898;SDS011;20544;50.018;20.010;2022-10-17T14:54:56;8.28;;;7.18;;
23898;SDS011;20544;50.018;20.010;2022-10-17T14:58:27;13.20;;;7.43;;
23898;SDS011;20544;50.018;20.010;2022-10-17T15:01:44;10.80;;;7.07;;
23898;SDS011;20544;50.018;20.010;2022-10-17T15:05:00;11.38;;;8.00;;
23898;SDS011;20544;50.018;20.010;2022-10-17T15:08:21;13.90;;;8.05;;
23898;SDS011;20544;50.018;20.010;2022-10-17T15:11:38;15.45;;;8.60;;
23898;SDS011;20544;50.018;20.010;2022-10-17T15:14:54;15.23;;;9.28;;
23898;SDS011;20544;50.018;20.010;2022-10-17T15:18:12;17.48;;;9.13;;
23898;SDS011;20544;50.018;20.010;2022-10-17T15:21:28;13.80;;;8.80;;
23898;SDS011;20544;50.018;20.010;2022-10-17T15:24:47;24.47;;;10.10;;
23898;SDS011;20544;50.018;20.010;2022-10-17T15:28:03;13.23;;;9.73;;
23898;SDS011;20544;50.018;20.010;2022-10-17T15:31:20;18.68;;;9.83;;
23898;SDS011;20544;50.018;20.010;2022-10-17T15:34:38;16.70;;;8.93;;
23898;SDS011;20544;50.018;20.010;2022-10-17T15:37:54;15.70;;;9.68;;
23898;SDS011;20544;50.018;20.010;2022-10-17T15:41:11;14.95;;;9.18;;
23898;SDS011;20544;50.018;20.010;2022-10-17T15:44:28;16.08;;;10.33;;
23898;SDS011;20544;50.018;20.010;2022-10-17T15:47:48;19.08;;;10.45;;
23898;SDS011;20544;50.018;20.010;2022-10-17T15:51:06;17.40;;;10.43;;
23898;SDS011;20544;50.018;20.010;2022-10-17T15:54:22;16.78;;;10.45;;
23898;SDS011;20544;50.018;20.010;2022-10-17T15:57:39;18.55;;;10.60;;
23898;SDS011;20544;50.018;20.010;2022-10-17T16:00:57;16.15;;;10.60;;
23898;SDS011;20544;50.018;20.010;2022-10-17T16:04:14;20.95;;;11.70;;
23898;SDS011;20544;50.018;20.010;2022-10-17T16:07:37;16.68;;;10.90;;
23898;SDS011;20544;50.018;20.010;2022-10-17T16:10:53;20.43;;;11.33;;
23898;SDS011;20544;50.018;20.010;2022-10-17T16:14:10;19.08;;;12.75;;
23898;SDS011;20544;50.018;20.010;2022-10-17T16:17:28;18.87;;;10.73;;
23898;SDS011;20544;50.018;20.010;2022-10-17T16:20:44;21.38;;;11.90;;
23898;SDS011;20544;50.018;20.010;2022-10-17T16:24:00;16.55;;;10.93;;
23898;SDS011;20544;50.018;20.010;2022-10-17T16:27:19;19.33;;;11.78;;
23898;SDS011;20544;50.018;20.010;2022-10-17T16:30:36;14.95;;;9.93;;
23898;SDS011;20544;50.018;20.010;2022-10-17T16:33:56;14.70;;;8.93;;
23898;SDS011;20544;50.018;20.010;2022-10-17T16:37:14;13.90;;;8.85;;
23898;SDS011;20544;50.018;20.010;2022-10-17T16:40:36;18.73;;;11.25;;
23898;SDS011;20544;50.018;20.010;2022-10-17T16:43:53;18.33;;;11.13;;
23898;SDS011;20544;50.018;20.010;2022-10-17T16:47:11;15.85;;;10.45;;
23898;SDS011;20544;50.018;20.010;2022-10-17T16:50:28;13.83;;;9.30;;
23898;SDS011;20544;50.018;20.010;2022-10-17T16:57:01;16.30;;;9.88;;
23898;SDS011;20544;50.018;20.010;2022-10-17T17:00:17;17.75;;;10.60;;
23898;SDS011;20544;50.018;20.010;2022-10-17T17:03:35;16.53;;;10.85;;
23898;SDS011;20544;50.018;20.010;2022-10-17T17:06:52;16.85;;;10.80;;
23898;SDS011;20544;50.018;20.010;2022-10-17T17:10:09;16.80;;;10.90;;
23898;SDS011;20544;50.018;20.010;2022-10-17T17:13:25;19.00;;;10.75;;
23898;SDS011;20544;50.018;20.010;2022-10-17T17:16:42;14.98;;;10.83;;
23898;SDS011;20544;50.018;20.010;2022-10-17T17:19:59;18.93;;;10.48;;
23898;SDS011;20544;50.018;20.010;2022-10-17T17:23:16;15.00;;;9.38;;
23898;SDS011;20544;50.018;20.010;2022-10-17T17:29:48;14.95;;;9.13;;
23898;SDS011;20544;50.018;20.010;2022-10-17T17:33:07;15.05;;;9.53;;
23898;SDS011;20544;50.018;20.010;2022-10-17T17:36:25;13.90;;;9.30;;
23898;SDS011;20544;50.018;20.010;2022-10-17T17:39:44;13.93;;;9.40;;
23898;SDS011;20544;50.018;20.010;2022-10-17T17:43:03;14.28;;;10.45;;
23898;SDS011;20544;50.018;20.010;2022-10-17T17:46:19;15.10;;;9.25;;
23898;SDS011;20544;50.018;20.010;2022-10-17T17:49:36;13.75;;;9.30;;
23898;SDS011;20544;50.018;20.010;2022-10-17T17:52:52;14.98;;;8.58;;
23898;SDS011;20544;50.018;20.010;2022-10-17T17:56:10;13.50;;;9.10;;
23898;SDS011;20544;50.018;20.010;2022-10-17T17:59:28;13.08;;;9.38;;
23898;SDS011;20544;50.018;20.010;2022-10-17T18:02:45;15.35;;;8.70;;
23898;SDS011;20544;50.018;20.010;2022-10-17T18:06:04;14.05;;;8.83;;
23898;SDS011;20544;50.018;20.010;2022-10-17T18:09:21;14.33;;;8.20;;
23898;SDS011;20544;50.018;20.010;2022-10-17T18:12:40;13.78;;;8.40;;
23898;SDS011;20544;50.018;20.010;2022-10-17T18:15:56;18.73;;;12.78;;
23898;SDS011;20544;50.018;20.010;2022-10-17T18:19:16;15.45;;;8.98;;
23898;SDS011;20544;50.018;20.010;2022-10-17T18:22:34;13.43;;;8.98;;
23898;SDS011;20544;50.018;20.010;2022-10-17T18:25:53;15.18;;;9.23;;
23898;SDS011;20544;50.018;20.010;2022-10-17T18:29:12;13.78;;;8.83;;
23898;SDS011;20544;50.018;20.010;2022-10-17T18:32:30;13.45;;;8.60;;
23898;SDS011;20544;50.018;20.010;2022-10-17T18:35:47;13.65;;;8.88;;
23898;SDS011;20544;50.018;20.010;2022-10-17T18:39:07;14.68;;;9.55;;
23898;SDS011;20544;50.018;20.010;2022-10-17T18:42:23;15.58;;;9.55;;
23898;SDS011;20544;50.018;20.010;2022-10-17T18:45:40;13.65;;;9.70;;
23898;SDS011;20544;50.018;20.010;2022-10-17T18:48:56;12.95;;;9.38;;
23898;SDS011;20544;50.018;20.010;2022-10-17T18:52:13;14.48;;;9.70;;
23898;SDS011;20544;50.018;20.010;2022-10-17T18:55:31;13.28;;;9.88;;
23898;SDS011;20544;50.018;20.010;2022-10-17T18:58:52;19.00;;;9.83;;
23898;SDS011;20544;50.018;20.010;2022-10-17T19:02:09;16.05;;;9.80;;
23898;SDS011;20544;50.018;20.010;2022-10-17T19:05:26;15.95;;;9.93;;
23898;SDS011;20544;50.018;20.010;2022-10-17T19:08:44;22.00;;;10.07;;
23898;SDS011;20544;50.018;20.010;2022-10-17T19:12:01;15.60;;;9.90;;
23898;SDS011;20544;50.018;20.010;2022-10-17T19:15:19;17.08;;;9.53;;
23898;SDS011;20544;50.018;20.010;2022-10-17T19:18:36;17.35;;;10.10;;
23898;SDS011;20544;50.018;20.010;2022-10-17T19:21:54;14.68;;;9.55;;
23898;SDS011;20544;50.018;20.010;2022-10-17T19:25:11;17.00;;;9.38;;
23898;SDS011;20544;50.018;20.010;2022-10-17T19:28:28;18.05;;;10.45;;
23898;SDS011;20544;50.018;20.010;2022-10-17T19:31:45;16.43;;;9.80;;
23898;SDS011;20544;50.018;20.010;2022-10-17T19:35:02;14.75;;;9.15;;
23898;SDS011;20544;50.018;20.010;2022-10-17T19:41:40;14.58;;;10.45;;
23898;SDS011;20544;50.018;20.010;2022-10-17T19:44:58;15.95;;;10.75;;
23898;SDS011;20544;50.018;20.010;2022-10-17T19:48:15;13.45;;;10.58;;
23898;SDS011;20544;50.018;20.010;2022-10-17T19:51:32;15.98;;;11.00;;
23898;SDS011;20544;50.018;20.010;2022-10-17T19:58:06;13.00;;;8.98;;
23898;SDS011;20544;50.018;20.010;2022-10-17T20:01:23;16.30;;;10.28;;